createdAt,value
2023-03-29T02:16:53.870Z,95797.00
2023-03-29T02:32:40.620Z,95785.00
2023-03-29T03:37:29.785Z,95740.00
2023-03-29T05:05:05.409Z,95691.00
2023-03-29T05:22:02.737Z,95673.00
2023-03-29T05:26:03.870Z,95679.00
2023-03-29T05:30:03.707Z,95675.00
2023-03-29T05:34:03.462Z,95671.00
2023-03-29T05:38:03.885Z,95673.00
2023-03-29T06:05:32.135Z,95675.00
2023-03-29T06:09:32.222Z,95661.00
2023-03-29T06:40:29.440Z,95699.00
2023-03-29T06:44:30.036Z,95695.00
2023-03-29T06:48:29.932Z,95697.00
2023-03-29T06:52:29.745Z,95704.00
2023-03-29T07:00:47.990Z,95708.00
2023-03-29T07:04:49.024Z,95706.00
2023-03-29T07:17:26.806Z,95722.00
2023-03-29T07:28:39.342Z,95724.00
2023-03-29T07:32:40.741Z,95720.00
2023-03-29T07:36:40.547Z,95724.00
2023-03-29T07:40:47.140Z,95720.00
2023-03-29T07:44:40.821Z,95726.00
2023-03-29T07:48:39.417Z,95728.00
2023-03-29T07:52:39.825Z,95726.00
2023-03-29T07:56:39.587Z,95728.00
2023-03-29T08:00:39.131Z,95734.00
2023-03-29T08:04:39.498Z,95730.00
2023-03-29T08:08:39.798Z,95730.00
2023-03-29T08:12:38.672Z,95724.00
2023-03-29T08:16:38.712Z,95724.00
2023-03-29T08:20:38.596Z,95722.00
2023-03-29T08:29:01.529Z,95728.00
2023-03-29T08:37:16.889Z,95726.00
2023-03-29T08:41:19.502Z,95738.00
2023-03-29T08:45:19.098Z,95728.00
2023-03-29T08:49:32.190Z,95734.00
2023-03-29T09:01:58.245Z,95744.00
2023-03-29T09:05:58.931Z,95748.00
2023-03-29T09:09:55.940Z,95746.00
2023-03-29T09:13:56.068Z,95750.00
2023-03-29T09:17:56.126Z,95750.00
2023-03-29T09:21:56.114Z,95746.00
2023-03-29T09:25:56.012Z,95752.00
2023-03-29T09:29:55.609Z,95748.00
2023-03-29T09:33:55.693Z,95756.00
2023-03-29T10:41:39.563Z,95716.00
2023-03-29T10:45:39.959Z,95716.00
2023-03-29T10:49:40.222Z,95718.00
2023-03-29T10:53:39.385Z,95704.00
2023-03-29T11:12:27.096Z,95693.00
2023-03-29T11:30:24.496Z,95679.00
2023-03-29T11:38:45.194Z,95659.00
2023-03-29T11:42:44.028Z,95661.00
2023-03-29T12:17:02.344Z,95616.00
2023-03-29T12:29:41.049Z,95602.00
2023-03-29T12:33:39.964Z,95601.00
2023-03-29T12:37:38.808Z,95604.00
2023-03-29T12:41:38.785Z,95591.00
2023-03-29T12:45:38.350Z,95583.00
2023-03-29T12:49:38.662Z,95571.00
2023-03-29T13:02:16.252Z,95555.00
2023-03-29T13:06:22.412Z,95557.00
2023-03-29T13:10:16.826Z,95548.00
2023-03-29T13:14:17.130Z,95534.00
2023-03-29T13:18:17.293Z,95534.00
2023-03-29T13:22:16.918Z,95530.00
